Time;durP1;ratioP1;P1;durP2;ratioP2;P2;SDS_P1;SDS_P2;PMS_P1;PMS_P2;Temp;Humidity;BMP_temperature;BMP_pressure;BME280_temperature;BME280_humidity;BME280_pressure;Samples;Min_cycle;Max_cycle;Signal;HPM_P1;HPM_P2
2024/03/06 00:00:58;;;;;;;;;10.75;6.00;;;;;9.01;75.16;101105.09;5078668;27;56687;-62
2024/03/06 00:03:23;;;;;;;;;14.00;10.50;;;;;9.02;75.19;101112.03;5084468;27;68077;-57
2024/03/06 00:05:48;;;;;;;;;12.75;10.00;;;;;9.03;75.04;101113.75;5067263;28;76737;-59
2024/03/06 00:08:15;;;;;;;;;12.50;10.00;;;;;9.03;75.37;101114.63;5066278;28;45524;-58
2024/03/06 00:10:41;;;;;;;;;11.75;10.00;;;;;8.99;75.60;101099.03;5070687;27;45522;-57
2024/03/06 00:13:06;;;;;;;;;12.50;10.75;;;;;9.05;75.53;101114.63;5077077;27;45721;-58
2024/03/06 00:15:31;;;;;;;;;14.25;9.00;;;;;9.05;74.93;101119.84;5068948;27;46573;-58
2024/03/06 00:17:58;;;;;;;;;11.00;7.25;;;;;9.04;75.02;101124.19;5069779;27;65227;-58
2024/03/06 00:20:23;;;;;;;;;27.25;24.50;;;;;9.02;75.05;101120.72;5076645;27;45412;-58
2024/03/06 00:22:49;;;;;;;;;26.00;19.00;;;;;9.01;75.03;101119.03;5070897;27;47560;-56
2024/03/06 00:25:14;;;;;;;;;12.50;11.00;;;;;9.02;74.82;101130.31;5064163;27;71694;-59
2024/03/06 00:27:39;;;;;;;;;10.00;6.00;;;;;9.04;75.07;101128.53;5073592;27;45286;-57
2024/03/06 00:30:06;;;;;;;;;11.00;7.25;;;;;9.02;75.04;101135.53;5067542;27;69744;-59
2024/03/06 00:32:32;;;;;;;;;10.50;9.00;;;;;9.01;75.32;101136.41;5077160;27;45457;-58
2024/03/06 00:34:57;;;;;;;;;11.25;7.75;;;;;9.01;75.64;101139.91;5090096;27;64672;-58
2024/03/06 00:37:22;;;;;;;;;12.50;9.25;;;;;9.01;75.67;101139.03;5062091;27;73227;-59
2024/03/06 00:39:48;;;;;;;;;11.25;9.00;;;;;9.01;75.51;101134.69;5074862;28;45710;-59
2024/03/06 00:42:13;;;;;;;;;11.50;9.00;;;;;9.01;75.54;101139.03;5069634;27;69325;-59
2024/03/06 00:44:39;;;;;;;;;12.50;10.00;;;;;8.98;75.70;101145.16;5076056;27;45345;-59
2024/03/06 00:47:04;;;;;;;;;16.75;11.00;;;;;8.95;75.82;101136.50;5065760;28;45331;-59
2024/03/06 00:49:30;;;;;;;;;13.00;9.00;;;;;8.97;75.81;101143.41;5059860;28;66708;-58
2024/03/06 00:51:55;;;;;;;;;16.25;10.50;;;;;8.96;75.93;101144.31;5069604;27;45437;-58
2024/03/06 00:54:20;;;;;;;;;13.00;10.00;;;;;8.97;76.17;101147.78;5066501;27;76056;-58
2024/03/06 00:56:45;;;;;;;;;10.75;8.75;;;;;8.94;76.12;101146.06;5066471;27;72995;-55
2024/03/06 00:59:11;;;;;;;;;11.50;9.00;;;;;8.93;76.40;101152.19;5075288;27;62983;-57
2024/03/06 01:01:36;;;;;;;;;9.00;7.75;;;;;8.90;76.03;101147.00;5070739;27;55680;-58
2024/03/06 01:04:02;;;;;;;;;20.50;13.00;;;;;8.91;75.88;101154.81;5073010;27;71732;-58
2024/03/06 01:06:27;;;;;;;;;15.25;11.00;;;;;8.89;76.16;101145.28;5071348;27;67635;-58
2024/03/06 01:08:52;;;;;;;;;10.75;9.75;;;;;8.85;76.15;101143.59;5061876;27;46153;-59
2024/03/06 01:11:18;;;;;;;;;12.00;9.50;;;;;8.88;76.03;101148.78;5075125;27;45393;-58
2024/03/06 01:13:43;;;;;;;;;10.50;8.75;;;;;8.87;76.26;101145.31;5068433;27;62941;-58
2024/03/06 01:16:08;;;;;;;;;12.75;9.25;;;;;8.88;76.18;101154.00;5073771;27;45532;-58
2024/03/06 01:18:34;;;;;;;;;11.25;11.25;;;;;8.87;76.16;101158.38;5061094;27;62377;-58
2024/03/06 01:20:59;;;;;;;;;16.75;12.75;;;;;8.85;75.97;101152.31;5063464;27;60062;-59
2024/03/06 01:23:24;;;;;;;;;13.50;11.75;;;;;8.83;76.00;101158.41;5077123;27;69255;-58
2024/03/06 01:25:50;;;;;;;;;10.50;10.25;;;;;8.79;76.21;101164.56;5070577;27;51508;-59
2024/03/06 01:28:15;;;;;;;;;23.00;17.00;;;;;8.78;76.17;101165.44;5065138;27;61882;-58
2024/03/06 01:30:41;;;;;;;;;15.75;12.00;;;;;8.76;76.34;101165.44;5064830;27;45513;-58
2024/03/06 01:33:06;;;;;;;;;16.25;11.00;;;;;8.73;76.39;101171.59;5069987;27;62430;-58
2024/03/06 01:35:31;;;;;;;;;16.00;15.50;;;;;8.69;76.74;101169.00;5062217;28;45413;-58
2024/03/06 01:37:58;;;;;;;;;21.75;19.75;;;;;8.69;76.97;101166.41;5073093;27;45415;-58
2024/03/06 01:40:23;;;;;;;;;16.50;15.00;;;;;8.68;76.70;101160.34;5070037;27;45564;-59
2024/03/06 01:42:49;;;;;;;;;20.00;15.50;;;;;8.64;77.32;101160.38;5065756;27;47166;-59
2024/03/06 01:45:14;;;;;;;;;18.50;15.50;;;;;8.61;77.09;101163.91;5074484;28;45442;-58
2024/03/06 01:47:40;;;;;;;;;12.50;12.00;;;;;8.56;77.07;101163.09;5063761;28;45582;-59
2024/03/06 01:50:08;;;;;;;;;15.75;11.50;;;;;8.51;77.12;101159.66;5073058;27;73028;-58
2024/03/06 01:52:34;;;;;;;;;14.50;11.75;;;;;8.47;77.01;101155.38;5073114;27;46504;-58
2024/03/06 01:54:59;;;;;;;;;18.50;12.00;;;;;8.45;76.95;101155.41;5065335;27;45426;-59
2024/03/06 01:57:25;;;;;;;;;15.00;11.75;;;;;8.47;77.20;101158.84;5065538;27;70302;-63
2024/03/06 01:59:50;;;;;;;;;13.50;11.00;;;;;8.49;76.88;101156.22;5072836;28;72233;-58
2024/03/06 02:02:16;;;;;;;;;14.50;11.50;;;;;8.51;77.12;101151.84;5070596;27;46208;-58
2024/03/06 02:04:41;;;;;;;;;13.50;13.50;;;;;8.51;76.66;101151.84;5065499;28;45441;-59
2024/03/06 02:07:10;;;;;;;;;19.00;15.00;;;;;8.45;76.68;101158.00;5071502;27;51586;-55
2024/03/06 02:09:36;;;;;;;;;18.00;14.75;;;;;8.42;77.06;101159.75;5068294;27;45472;-55
2024/03/06 02:12:03;;;;;;;;;19.00;14.00;;;;;8.38;77.13;101158.06;5067222;27;46228;-57
2024/03/06 02:14:29;;;;;;;;;18.75;13.25;;;;;8.38;77.41;101155.47;5074445;28;45843;-59
2024/03/06 02:16:54;;;;;;;;;23.75;17.75;;;;;8.36;77.34;101158.06;5078814;27;45363;-57
2024/03/06 02:19:19;;;;;;;;;18.25;14.50;;;;;8.36;77.30;101164.16;5071614;27;63483;-57
2024/03/06 02:21:45;;;;;;;;;14.25;9.25;;;;;8.36;77.71;101160.69;5071529;27;45896;-56
2024/03/06 02:24:12;;;;;;;;;21.00;16.00;;;;;8.38;77.94;101163.28;5069785;27;45371;-56
2024/03/06 02:26:38;;;;;;;;;27.50;17.00;;;;;8.41;78.04;101169.31;5051063;28;45485;-57
2024/03/06 02:29:05;;;;;;;;;15.25;14.25;;;;;8.44;78.00;101158.00;5068147;28;45322;-59
2024/03/06 02:31:31;;;;;;;;;22.50;17.75;;;;;8.47;78.01;101161.44;5065545;27;46169;-59
2024/03/06 02:33:58;;;;;;;;;17.25;16.00;;;;;8.49;77.80;101164.91;5086915;27;45406;-57
2024/03/06 02:36:23;;;;;;;;;22.50;17.00;;;;;8.48;77.77;101168.41;5071854;28;45313;-58
2024/03/06 02:38:49;;;;;;;;;22.75;18.00;;;;;8.48;77.75;101165.78;5065145;27;69914;-58
2024/03/06 02:41:15;;;;;;;;;16.50;11.50;;;;;8.50;77.73;101169.25;5068662;27;45997;-57
2024/03/06 02:43:41;;;;;;;;;24.00;20.75;;;;;8.53;77.63;101169.22;5072054;28;45750;-58
2024/03/06 02:46:06;;;;;;;;;25.25;18.00;;;;;8.52;77.60;101164.00;5069584;28;45336;-58
2024/03/06 02:48:32;;;;;;;;;24.00;20.25;;;;;8.50;77.39;101174.47;5060030;27;54092;-56
2024/03/06 02:50:59;;;;;;;;;24.50;18.75;;;;;8.46;77.63;101164.06;5063998;27;75577;-57
2024/03/06 02:53:25;;;;;;;;;21.25;16.50;;;;;8.47;77.52;101163.19;5065402;27;46517;-56
2024/03/06 02:55:51;;;;;;;;;22.75;17.25;;;;;8.49;77.31;101164.03;5060504;28;45368;-55
2024/03/06 02:58:16;;;;;;;;;17.75;16.50;;;;;8.47;77.51;101163.19;5054121;28;45385;-58
2024/03/06 03:00:42;;;;;;;;;28.50;18.75;;;;;8.42;77.29;101163.25;5069115;27;46066;-60
2024/03/06 03:03:07;;;;;;;;;24.50;18.00;;;;;8.39;77.19;101167.59;5061644;28;45449;-58
2024/03/06 03:05:33;;;;;;;;;13.50;12.00;;;;;8.33;77.39;101173.75;5071406;28;45411;-58
2024/03/06 03:07:59;;;;;;;;;22.50;16.75;;;;;8.29;77.85;101172.06;5085872;27;45569;-58
2024/03/06 03:10:24;;;;;;;;;22.75;18.50;;;;;8.20;77.69;101162.59;5065052;28;45924;-58
2024/03/06 03:12:49;;;;;;;;;18.25;17.00;;;;;8.28;78.08;101180.75;5070194;27;45439;-59
2024/03/06 03:15:15;;;;;;;;;26.00;18.50;;;;;8.32;78.20;101179.81;5072292;28;45524;-59
2024/03/06 03:17:41;;;;;;;;;22.75;19.25;;;;;8.34;77.93;101172.88;5062520;27;64234;-59
2024/03/06 03:20:10;;;;;;;;;28.00;18.75;;;;;8.31;77.97;101181.59;5066564;28;45324;-56
2024/03/06 03:22:39;;;;;;;;;24.50;20.25;;;;;8.32;78.39;101185.03;5066797;27;46402;-59
2024/03/06 03:25:11;;;;;;;;;21.00;17.00;;;;;8.34;78.32;101178.09;5066241;27;45388;-58
2024/03/06 03:27:38;;;;;;;;;25.25;21.00;;;;;8.34;77.96;101181.56;5064641;27;45283;-58
2024/03/06 03:30:07;;;;;;;;;34.00;24.00;;;;;8.29;78.15;101182.50;5070580;27;45539;-58
2024/03/06 03:32:32;;;;;;;;;32.25;20.50;;;;;8.25;78.52;101181.66;5067021;28;45417;-55
2024/03/06 03:34:57;;;;;;;;;24.75;19.50;;;;;8.23;78.43;101178.19;5067734;27;68136;-57
2024/03/06 03:37:23;;;;;;;;;27.75;22.00;;;;;8.24;78.85;101184.28;5069924;28;71184;-59
2024/03/06 03:39:48;;;;;;;;;26.75;22.00;;;;;8.26;78.81;101182.50;5074979;27;46164;-59
2024/03/06 03:42:14;;;;;;;;;25.75;20.75;;;;;8.28;78.68;101186.81;5094329;27;49527;-58
2024/03/06 03:44:39;;;;;;;;;27.50;21.25;;;;;8.28;78.76;101184.22;5068878;27;45549;-58
2024/03/06 03:47:05;;;;;;;;;27.75;18.00;;;;;8.27;78.57;101184.22;5068103;27;45521;-58
2024/03/06 03:49:31;;;;;;;;;27.50;20.50;;;;;8.18;78.66;101178.25;5068862;27;48457;-58
2024/03/06 03:51:56;;;;;;;;;39.00;22.75;;;;;8.22;78.71;101188.66;5073608;27;71957;-58
2024/03/06 03:54:21;;;;;;;;;18.50;18.50;;;;;8.17;79.10;101192.16;5085131;27;68710;-58
2024/03/06 03:56:47;;;;;;;;;33.00;19.50;;;;;8.20;79.03;101185.16;5068437;28;72002;-57
2024/03/06 03:59:12;;;;;;;;;38.00;27.50;;;;;8.23;79.17;101183.38;5069072;27;45466;-58
2024/03/06 04:01:37;;;;;;;;;21.25;18.25;;;;;8.24;78.89;101186.88;5070010;27;63901;-58
2024/03/06 04:04:03;;;;;;;;;38.25;26.25;;;;;8.19;78.78;101192.13;5074855;27;45309;-59
2024/03/06 04:06:28;;;;;;;;;15.50;6.75;;;;;8.12;78.80;101196.53;5073373;27;45453;-58
2024/03/06 04:08:53;;;;;;;;;65.25;37.00;;;;;8.08;79.16;101199.22;5075513;27;50308;-59
2024/03/06 04:11:19;;;;;;;;;40.00;29.00;;;;;8.05;79.79;101197.47;5068178;27;47925;-58
2024/03/06 04:13:44;;;;;;;;;57.50;36.00;;;;;8.05;79.95;101196.63;5076271;27;50244;-58
2024/03/06 04:16:09;;;;;;;;;44.75;31.50;;;;;8.05;80.60;101200.06;5071978;28;59545;-58
2024/03/06 04:18:35;;;;;;;;;35.50;28.00;;;;;8.07;81.11;101205.28;5071502;27;46098;-59
2024/03/06 04:21:05;;;;;;;;;36.50;31.25;;;;;8.10;80.82;101210.47;5073412;27;49352;-58
2024/03/06 04:23:30;;;;;;;;;39.25;28.00;;;;;8.07;80.49;101197.47;5072345;27;45322;-58
2024/03/06 04:25:56;;;;;;;;;29.00;22.75;;;;;8.10;80.62;101211.34;5078492;27;45361;-58
2024/03/06 04:28:21;;;;;;;;;40.50;30.50;;;;;8.10;80.33;101205.25;5084800;27;46059;-59
2024/03/06 04:30:46;;;;;;;;;42.25;28.75;;;;;8.09;80.00;101214.84;5076320;27;45501;-58
2024/03/06 04:33:14;;;;;;;;;29.50;24.25;;;;;8.09;79.91;101220.06;5068670;27;69124;-57
2024/03/06 04:35:40;;;;;;;;;36.25;24.50;;;;;8.05;79.53;101222.69;5075838;27;45456;-56
2024/03/06 04:38:06;;;;;;;;;36.00;25.50;;;;;7.96;79.83;101215.81;5062450;28;46320;-56
2024/03/06 04:40:31;;;;;;;;;29.50;24.25;;;;;7.99;79.75;101223.59;5073490;28;45808;-54
2024/03/06 04:42:57;;;;;;;;;35.25;24.75;;;;;7.94;79.58;101222.78;5069245;27;59649;-59
2024/03/06 04:45:22;;;;;;;;;37.75;23.75;;;;;7.91;79.70;101222.78;5071983;27;45330;-56
2024/03/06 04:47:47;;;;;;;;;35.25;24.00;;;;;7.89;80.09;101225.41;5067716;28;72143;-58
2024/03/06 04:50:14;;;;;;;;;43.50;28.50;;;;;7.90;80.02;101229.75;5074766;27;73638;-59
2024/03/06 04:52:39;;;;;;;;;31.50;21.25;;;;;7.90;79.73;101234.13;5080189;27;45293;-58
2024/03/06 04:55:06;;;;;;;;;33.75;24.50;;;;;7.87;79.63;101234.13;5074366;27;45315;-57
2024/03/06 04:57:31;;;;;;;;;32.25;24.50;;;;;7.85;79.67;101241.94;5067967;27;45578;-57
2024/03/06 04:59:58;;;;;;;;;22.00;16.50;;;;;7.81;79.77;101245.47;5070827;27;57067;-58
2024/03/06 05:02:23;;;;;;;;;33.25;26.00;;;;;7.80;80.10;101246.34;5070670;27;45647;-58
2024/03/06 05:04:48;;;;;;;;;43.75;32.50;;;;;7.80;79.85;101241.13;5067178;27;56287;-59
2024/03/06 05:07:14;;;;;;;;;34.50;28.50;;;;;7.80;80.08;101247.19;5071349;27;73393;-58
2024/03/06 05:09:41;;;;;;;;;40.25;27.50;;;;;7.83;80.09;101246.31;5066838;27;47267;-58
2024/03/06 05:12:07;;;;;;;;;35.75;24.50;;;;;7.84;80.04;101253.25;5069389;27;45470;-58
2024/03/06 05:14:32;;;;;;;;;35.50;29.00;;;;;7.84;79.79;101255.84;5072096;27;45257;-58
2024/03/06 05:16:57;;;;;;;;;33.50;26.75;;;;;7.85;79.90;101262.81;5075472;27;52132;-59
2024/03/06 05:19:23;;;;;;;;;34.75;28.25;;;;;7.85;79.66;101261.94;5066026;28;71547;-59
2024/03/06 05:21:48;;;;;;;;;28.75;25.00;;;;;7.83;79.76;101268.91;5084315;27;45540;-57
2024/03/06 05:24:13;;;;;;;;;39.50;27.50;;;;;7.80;79.88;101270.63;5070180;27;60720;-58
2024/03/06 05:26:39;;;;;;;;;40.25;29.00;;;;;7.78;79.97;101274.13;5061879;28;75614;-57
2024/03/06 05:29:04;;;;;;;;;35.00;27.00;;;;;7.76;79.88;101276.75;5068299;27;45331;-58
2024/03/06 05:31:29;;;;;;;;;23.75;21.00;;;;;7.72;79.91;101284.59;5066565;27;61385;-58
2024/03/06 05:33:55;;;;;;;;;36.00;27.75;;;;;7.73;80.22;101286.34;5061384;28;45323;-58
2024/03/06 05:36:20;;;;;;;;;35.50;27.75;;;;;7.71;80.17;101286.34;5064161;27;75470;-57
2024/03/06 05:38:45;;;;;;;;;36.00;27.75;;;;;7.73;80.39;101300.22;5077504;27;68900;-58
2024/03/06 05:41:11;;;;;;;;;33.25;28.50;;;;;7.75;80.17;101298.47;5068774;27;45779;-57
2024/03/06 05:43:36;;;;;;;;;29.50;25.50;;;;;7.71;80.16;101295.91;5070984;27;68143;-59
2024/03/06 05:46:02;;;;;;;;;28.50;21.50;;;;;7.70;80.13;101297.66;5072003;27;46236;-59
2024/03/06 05:48:27;;;;;;;;;38.50;23.75;;;;;7.69;80.22;101310.69;5071851;27;45438;-59
2024/03/06 05:50:53;;;;;;;;;29.50;22.75;;;;;7.68;80.33;101301.13;5065910;27;62831;-58
2024/03/06 05:53:18;;;;;;;;;33.50;27.50;;;;;7.70;80.60;101301.97;5071169;27;45438;-58
2024/03/06 05:55:44;;;;;;;;;31.00;23.50;;;;;7.73;80.39;101307.16;5069036;28;51019;-58
2024/03/06 05:58:09;;;;;;;;;37.50;29.75;;;;;7.74;80.37;101301.09;5067652;28;73623;-58
2024/03/06 06:00:34;;;;;;;;;38.25;28.25;;;;;7.72;80.23;101308.03;5061755;27;45343;-54
2024/03/06 06:03:00;;;;;;;;;23.75;18.00;;;;;7.72;80.21;101314.13;5063779;27;74257;-58
2024/03/06 06:05:25;;;;;;;;;34.75;24.25;;;;;7.70;79.93;101320.22;5063481;27;68705;-57
2024/03/06 06:07:51;;;;;;;;;29.50;20.50;;;;;7.66;79.94;101324.56;5064388;27;45161;-59
2024/03/06 06:10:16;;;;;;;;;24.00;19.25;;;;;7.62;80.10;101322.00;5078770;27;45338;-57
2024/03/06 06:12:41;;;;;;;;;29.25;18.50;;;;;7.60;79.82;101316.81;5073571;27;45655;-58
2024/03/06 06:15:08;;;;;;;;;29.50;24.25;;;;;7.53;80.01;101312.50;5073047;28;46442;-56
2024/03/06 06:17:33;;;;;;;;;31.00;24.75;;;;;7.58;80.39;101326.38;5072656;28;45406;-57
2024/03/06 06:19:59;;;;;;;;;34.25;23.25;;;;;7.58;80.54;101332.44;5066053;27;45348;-55
2024/03/06 06:22:27;;;;;;;;;32.50;24.75;;;;;7.59;80.25;101334.16;5074514;27;45750;-62
2024/03/06 06:24:54;;;;;;;;;28.50;22.75;;;;;7.61;80.46;101331.53;5067676;28;46328;-58
2024/03/06 06:27:20;;;;;;;;;27.75;21.50;;;;;7.60;80.14;101335.91;5080515;27;46128;-58
2024/03/06 06:29:45;;;;;;;;;27.75;22.50;;;;;7.64;80.83;101331.53;5071945;28;45496;-59
2024/03/06 06:32:10;;;;;;;;;30.50;23.00;;;;;7.62;80.77;101329.81;5068898;27;71010;-59
2024/03/06 06:34:36;;;;;;;;;30.50;22.00;;;;;7.69;80.24;101337.59;5060599;28;46349;-60
2024/03/06 06:37:02;;;;;;;;;25.75;18.00;;;;;7.69;80.23;101340.19;5067184;28;70604;-58
2024/03/06 06:39:27;;;;;;;;;18.75;16.50;;;;;7.72;80.05;101344.50;5062182;28;45356;-58
2024/03/06 06:41:52;;;;;;;;;26.25;18.00;;;;;7.73;79.95;101351.47;5073516;27;70690;-58
2024/03/06 06:44:18;;;;;;;;;24.25;16.00;;;;;7.74;79.70;101351.47;5058797;28;75314;-58
2024/03/06 06:46:43;;;;;;;;;27.00;17.50;;;;;7.75;79.68;101353.16;5062314;28;73233;-62
2024/03/06 06:49:09;;;;;;;;;27.00;19.75;;;;;7.82;79.95;101363.56;5068990;27;52757;-61
2024/03/06 06:51:35;;;;;;;;;24.75;16.25;;;;;7.87;79.66;101367.88;5065206;28;45454;-60
2024/03/06 06:54:00;;;;;;;;;25.50;22.00;;;;;7.88;79.43;101368.75;5067355;28;46232;-61
2024/03/06 06:56:25;;;;;;;;;25.00;18.25;;;;;7.92;79.45;101371.31;5066313;28;46062;-60
2024/03/06 06:58:51;;;;;;;;;21.25;18.00;;;;;7.94;79.33;101377.41;5064804;28;63667;-60
2024/03/06 07:01:16;;;;;;;;;25.75;21.00;;;;;7.97;79.31;101380.00;5068920;27;45457;-59
2024/03/06 07:03:42;;;;;;;;;29.75;23.00;;;;;8.01;79.31;101382.59;5059357;27;47196;-61
2024/03/06 07:06:07;;;;;;;;;32.00;25.75;;;;;8.05;79.35;101384.28;5074813;28;45344;-59
2024/03/06 07:08:33;;;;;;;;;27.25;20.75;;;;;8.07;79.10;101391.22;5069781;27;45594;-58
2024/03/06 07:10:58;;;;;;;;;29.50;23.25;;;;;8.07;79.08;101390.34;5062891;28;45469;-57
2024/03/06 07:13:24;;;;;;;;;31.25;22.50;;;;;8.04;79.22;101391.25;5068263;28;46105;-60
2024/03/06 07:15:49;;;;;;;;;33.25;22.00;;;;;8.06;79.26;101399.94;5074106;27;45267;-62
2024/03/06 07:18:14;;;;;;;;;31.75;22.25;;;;;8.11;79.39;101395.56;5072838;28;60176;-63
2024/03/06 07:20:40;;;;;;;;;30.50;24.00;;;;;8.15;79.51;101393.78;5071799;27;52257;-65
2024/03/06 07:23:06;;;;;;;;;26.75;21.50;;;;;8.18;79.09;101397.25;5066664;27;46274;-63
2024/03/06 07:25:32;;;;;;;;;28.25;24.50;;;;;8.17;78.96;101405.06;5068438;27;45422;-61
2024/03/06 07:27:57;;;;;;;;;30.25;24.50;;;;;8.15;78.96;101399.00;5072732;27;68283;-66
2024/03/06 07:30:22;;;;;;;;;31.00;25.50;;;;;8.17;79.17;101400.72;5062052;27;69876;-67
2024/03/06 07:32:48;;;;;;;;;25.50;19.00;;;;;8.21;78.70;101408.53;5070874;27;46061;-66
2024/03/06 07:35:13;;;;;;;;;37.00;22.25;;;;;8.17;78.71;101411.16;5069138;27;45460;-65
2024/03/06 07:37:39;;;;;;;;;33.50;21.00;;;;;8.16;78.37;101411.16;5068220;28;45666;-66
2024/03/06 07:40:06;;;;;;;;;25.75;22.25;;;;;8.14;78.18;101421.63;5075633;28;45292;-64
2024/03/06 07:42:33;;;;;;;;;34.00;20.75;;;;;8.13;78.20;101411.19;5074155;27;45551;-65
2024/03/06 07:44:58;;;;;;;;;23.00;18.00;;;;;8.20;77.99;101430.25;5069284;27;45353;-63
2024/03/06 07:47:24;;;;;;;;;30.75;22.75;;;;;8.22;77.87;101425.91;5062420;28;45310;-62
2024/03/06 07:49:50;;;;;;;;;29.00;24.50;;;;;8.26;77.93;101428.47;5068062;27;62312;-61
2024/03/06 07:52:15;;;;;;;;;32.75;27.50;;;;;8.32;77.93;101440.59;5076159;27;47356;-61
2024/03/06 07:54:41;;;;;;;;;30.25;23.00;;;;;8.33;77.47;101440.59;5064586;27;45390;-62
2024/03/06 07:57:06;;;;;;;;;30.00;23.00;;;;;8.34;77.32;101439.72;5075369;27;49328;-61
2024/03/06 07:59:31;;;;;;;;;36.25;27.25;;;;;8.34;77.10;101447.56;5064818;27;51156;-62
2024/03/06 08:01:57;;;;;;;;;31.75;26.75;;;;;8.36;77.18;101450.16;5062266;28;75358;-61
2024/03/06 08:04:23;;;;;;;;;40.00;28.75;;;;;8.38;77.18;101451.00;5064032;27;70698;-60
2024/03/06 08:06:48;;;;;;;;;34.00;24.50;;;;;8.39;77.00;101446.66;5065914;27;45421;-61
2024/03/06 08:09:16;;;;;;;;;33.25;25.50;;;;;8.42;77.05;101455.34;5069941;27;45530;-62
2024/03/06 08:11:42;;;;;;;;;20.00;18.00;;;;;8.42;76.73;101447.53;5064149;27;45490;-62
2024/03/06 08:14:07;;;;;;;;;24.00;21.00;;;;;8.43;76.67;101451.88;5077259;27;45471;-61
2024/03/06 08:16:33;;;;;;;;;24.50;17.00;;;;;8.45;76.73;101452.72;5067525;28;68360;-60
2024/03/06 08:18:59;;;;;;;;;27.50;21.75;;;;;8.44;76.49;101450.13;5072016;27;45593;-61
2024/03/06 08:21:25;;;;;;;;;26.50;21.25;;;;;8.46;76.53;101453.59;5067321;27;46171;-60
2024/03/06 08:23:50;;;;;;;;;30.50;23.00;;;;;8.51;76.42;101460.50;5075984;27;45255;-61
2024/03/06 08:26:16;;;;;;;;;28.75;21.50;;;;;8.52;76.46;101461.41;5079248;27;45348;-61
2024/03/06 08:28:41;;;;;;;;;21.00;17.25;;;;;8.55;76.35;101467.44;5073785;27;45277;-60
2024/03/06 08:31:08;;;;;;;;;29.00;25.25;;;;;8.62;76.05;101472.63;5067173;27;45444;-63
2024/03/06 08:33:33;;;;;;;;;26.75;23.00;;;;;8.63;76.08;101470.00;5065043;27;45665;-61
2024/03/06 08:35:59;;;;;;;;;29.25;21.00;;;;;8.60;76.11;101467.41;5074098;27;45392;-61
2024/03/06 08:38:24;;;;;;;;;27.50;19.50;;;;;8.53;75.75;101474.44;5074301;27;58816;-61
2024/03/06 08:40:50;;;;;;;;;30.25;23.75;;;;;8.55;75.91;101475.28;5080349;27;46149;-62
2024/03/06 08:43:15;;;;;;;;;26.25;19.50;;;;;8.58;75.88;101484.81;5071577;27;45794;-61
2024/03/06 08:45:42;;;;;;;;;24.00;22.75;;;;;8.61;76.13;101479.59;5063103;28;45453;-61
2024/03/06 08:48:07;;;;;;;;;28.25;19.75;;;;;8.67;75.87;101489.09;5075670;27;45313;-62
2024/03/06 08:50:33;;;;;;;;;25.00;17.50;;;;;8.69;75.50;101488.22;5062700;27;75687;-61
2024/03/06 08:52:58;;;;;;;;;22.25;19.50;;;;;8.71;75.23;101496.91;5066950;28;73344;-61
2024/03/06 08:55:23;;;;;;;;;29.00;20.50;;;;;8.71;75.10;101494.31;5078543;27;68304;-62
2024/03/06 08:57:50;;;;;;;;;25.25;20.75;;;;;8.68;74.92;101490.84;5068116;27;45327;-61
2024/03/06 09:00:17;;;;;;;;;22.50;20.50;;;;;8.66;75.31;101493.47;5074915;27;46514;-61
2024/03/06 09:02:43;;;;;;;;;35.00;25.25;;;;;8.70;75.30;101502.13;5079306;27;45262;-62
2024/03/06 09:05:10;;;;;;;;;28.50;22.25;;;;;8.66;75.19;101496.06;5066653;28;45419;-61
2024/03/06 09:07:40;;;;;;;;;25.50;17.75;;;;;8.72;75.18;101500.38;5064260;28;45323;-62
2024/03/06 09:10:15;;;;;;;;;32.50;26.00;;;;;8.74;75.29;101499.47;5071092;28;46266;-61
2024/03/06 09:12:41;;;;;;;;;27.00;23.25;;;;;8.81;75.41;101502.91;5081752;27;45824;-61
2024/03/06 09:15:11;;;;;;;;;29.00;24.00;;;;;8.85;75.68;101507.25;5061312;27;45426;-61
2024/03/06 09:17:37;;;;;;;;;27.00;22.25;;;;;8.88;75.74;101515.03;5062025;28;45589;-61
2024/03/06 09:20:11;;;;;;;;;26.25;18.00;;;;;8.94;75.75;101506.28;5059776;28;46394;-61
2024/03/06 09:22:38;;;;;;;;;28.25;25.00;;;;;9.02;75.78;101512.34;5060974;28;45863;-61
2024/03/06 09:25:05;;;;;;;;;27.50;22.50;;;;;9.06;75.16;101518.41;5061152;28;45259;-61
2024/03/06 09:27:30;;;;;;;;;35.00;25.50;;;;;9.08;75.28;101514.91;5062429;28;46438;-61
2024/03/06 09:29:56;;;;;;;;;28.75;25.50;;;;;9.10;75.12;101513.16;5070207;27;76372;-60
2024/03/06 09:32:22;;;;;;;;;33.00;24.25;;;;;9.13;74.76;101517.47;5063491;28;45369;-61
2024/03/06 09:34:48;;;;;;;;;32.00;24.50;;;;;9.13;74.46;101514.84;5064941;28;45496;-62
2024/03/06 09:37:14;;;;;;;;;22.00;17.50;;;;;9.16;74.30;101514.84;5072118;28;45533;-60
2024/03/06 09:39:39;;;;;;;;;32.00;23.00;;;;;9.12;74.08;101521.81;5071546;28;45364;-60
2024/03/06 09:42:05;;;;;;;;;24.00;19.75;;;;;9.11;74.19;101516.63;5077383;28;45444;-61
2024/03/06 09:44:31;;;;;;;;;23.75;22.75;;;;;9.15;74.23;101514.84;5066747;28;45416;-60
2024/03/06 09:46:59;;;;;;;;;22.75;20.00;;;;;9.23;73.97;101518.25;5075175;28;67330;-62
2024/03/06 09:49:25;;;;;;;;;29.25;19.25;;;;;9.28;73.68;101516.47;5071929;28;46380;-62
2024/03/06 09:51:52;;;;;;;;;25.75;20.50;;;;;9.35;73.37;101514.66;5067346;28;68951;-61
2024/03/06 09:54:19;;;;;;;;;28.00;16.75;;;;;9.45;73.74;101519.78;5073406;28;45649;-62
2024/03/06 09:56:45;;;;;;;;;25.50;17.25;;;;;9.55;72.90;101515.34;5059252;28;45319;-61
2024/03/06 09:59:11;;;;;;;;;25.25;20.75;;;;;9.65;72.70;101519.59;5077004;28;46980;-60
2024/03/06 10:01:58;;;;;;;;;24.75;19.00;;;;;9.72;72.12;101522.13;5075431;27;45854;-62
2024/03/06 10:04:25;;;;;;;;;20.25;16.00;;;;;9.84;72.38;101519.38;5071831;28;45455;-64
2024/03/06 10:06:54;;;;;;;;;36.75;27.50;;;;;9.91;71.76;101528.88;5075129;28;45578;-62
2024/03/06 10:09:20;;;;;;;;;27.50;19.50;;;;;9.96;71.38;101526.22;5063606;27;45323;-62
2024/03/06 10:11:45;;;;;;;;;22.25;19.50;;;;;10.04;71.35;101524.41;5067217;28;45520;-61
2024/03/06 10:14:12;;;;;;;;;30.75;22.00;;;;;10.11;70.85;101533.91;5070611;28;46131;-62
2024/03/06 10:16:37;;;;;;;;;28.25;21.50;;;;;10.17;70.73;101531.19;5065275;28;45774;-61
2024/03/06 10:19:18;;;;;;;;;25.50;20.50;;;;;10.28;71.10;101531.06;5073233;27;45331;-61
2024/03/06 10:21:45;;;;;;;;;39.50;24.25;;;;;10.32;70.35;101534.53;5061503;27;45604;-61
2024/03/06 10:24:11;;;;;;;;;28.25;25.25;;;;;10.33;69.88;101538.88;5072434;28;45528;-62
2024/03/06 10:26:36;;;;;;;;;29.25;21.25;;;;;10.38;70.16;101544.94;5062073;28;45313;-62
2024/03/06 10:29:02;;;;;;;;;29.25;19.50;;;;;10.40;69.63;101538.78;5062182;28;45478;-62
2024/03/06 10:31:30;;;;;;;;;24.00;20.50;;;;;10.49;69.93;101529.09;5068705;28;45485;-62
2024/03/06 10:33:55;;;;;;;;;25.75;21.25;;;;;10.60;70.12;101540.25;5066785;28;45469;-62
2024/03/06 10:36:21;;;;;;;;;26.25;22.00;;;;;10.71;69.21;101538.38;5064840;27;72130;-62
2024/03/06 10:38:48;;;;;;;;;21.75;18.75;;;;;10.81;69.07;101533.84;5059627;28;45660;-62
2024/03/06 10:41:15;;;;;;;;;18.25;14.00;;;;;10.86;68.92;101539.88;5067475;28;47900;-62
2024/03/06 10:43:43;;;;;;;;;23.25;18.75;;;;;10.91;68.56;101539.81;5072743;28;45335;-62
2024/03/06 10:46:10;;;;;;;;;18.25;15.00;;;;;10.87;67.74;101536.38;5071989;28;45533;-61
2024/03/06 10:48:37;;;;;;;;;17.50;12.75;;;;;10.92;67.83;101538.91;5070155;28;71736;-61
2024/03/06 10:51:03;;;;;;;;;22.25;15.25;;;;;10.93;67.65;101538.88;5061823;28;47003;-60
2024/03/06 10:53:29;;;;;;;;;21.00;17.50;;;;;10.88;67.62;101542.47;5058983;28;45742;-61
2024/03/06 10:55:56;;;;;;;;;18.50;15.25;;;;;10.73;67.38;101533.97;5071039;28;50137;-59
2024/03/06 10:58:23;;;;;;;;;17.25;14.50;;;;;10.62;67.42;101528.88;5070147;28;56676;-60
2024/03/06 11:00:48;;;;;;;;;22.75;18.75;;;;;10.55;67.65;101544.69;5068094;27;74377;-60
2024/03/06 11:03:14;;;;;;;;;26.00;20.50;;;;;10.49;67.75;101537.78;5064738;28;45385;-61
2024/03/06 11:05:46;;;;;;;;;23.50;20.00;;;;;10.49;67.94;101540.41;5074010;28;45292;-61
2024/03/06 11:08:13;;;;;;;;;23.75;17.25;;;;;10.55;68.18;101542.06;5070855;28;45509;-61
2024/03/06 11:10:40;;;;;;;;;54.75;40.25;;;;;10.70;67.98;101543.63;5060642;28;45461;-61